sensor_id;sensor_type;location;lat;lon;timestamp;temperature;humidity
10051;DHT22;5065;46.942;7.432;2024-02-26T00:00:44;9.70;99.90
10051;DHT22;5065;46.942;7.432;2024-02-26T00:03:12;9.70;99.90
10051;DHT22;5065;46.942;7.432;2024-02-26T00:05:39;9.70;99.90
10051;DHT22;5065;46.942;7.432;2024-02-26T00:08:06;9.70;99.90
10051;DHT22;5065;46.942;7.432;2024-02-26T00:10:35;9.70;99.90
10051;DHT22;5065;46.942;7.432;2024-02-26T00:13:02;9.70;99.90
10051;DHT22;5065;46.942;7.432;2024-02-26T00:15:29;9.70;99.90
10051;DHT22;5065;46.942;7.432;2024-02-26T00:17:57;9.70;99.90
10051;DHT22;5065;46.942;7.432;2024-02-26T00:20:24;9.70;99.90
10051;DHT22;5065;46.942;7.432;2024-02-26T00:22:51;9.70;99.90
10051;DHT22;5065;46.942;7.432;2024-02-26T00:25:18;9.70;99.90
10051;DHT22;5065;46.942;7.432;2024-02-26T00:27:45;9.80;99.90
10051;DHT22;5065;46.942;7.432;2024-02-26T00:30:12;9.70;99.90
10051;DHT22;5065;46.942;7.432;2024-02-26T00:32:39;9.70;99.90
10051;DHT22;5065;46.942;7.432;2024-02-26T00:35:08;9.70;99.90
10051;DHT22;5065;46.942;7.432;2024-02-26T00:37:36;9.70;99.90
10051;DHT22;5065;46.942;7.432;2024-02-26T00:40:03;9.70;99.90
10051;DHT22;5065;46.942;7.432;2024-02-26T00:42:31;9.70;99.90
10051;DHT22;5065;46.942;7.432;2024-02-26T00:44:58;9.70;99.90
10051;DHT22;5065;46.942;7.432;2024-02-26T00:47:25;9.60;99.90
10051;DHT22;5065;46.942;7.432;2024-02-26T00:49:52;9.60;99.90
10051;DHT22;5065;46.942;7.432;2024-02-26T00:52:21;9.50;99.90
10051;DHT22;5065;46.942;7.432;2024-02-26T00:54:48;9.40;99.90
10051;DHT22;5065;46.942;7.432;2024-02-26T00:57:15;9.30;99.90
10051;DHT22;5065;46.942;7.432;2024-02-26T00:59:42;9.30;99.90
10051;DHT22;5065;46.942;7.432;2024-02-26T01:02:09;9.30;99.90
10051;DHT22;5065;46.942;7.432;2024-02-26T01:04:36;9.30;99.90
10051;DHT22;5065;46.942;7.432;2024-02-26T01:07:03;9.40;99.90
10051;DHT22;5065;46.942;7.432;2024-02-26T01:09:32;9.40;99.90
10051;DHT22;5065;46.942;7.432;2024-02-26T01:11:59;9.40;99.90
10051;DHT22;5065;46.942;7.432;2024-02-26T01:14:28;9.40;99.90
10051;DHT22;5065;46.942;7.432;2024-02-26T01:16:55;9.40;99.90
10051;DHT22;5065;46.942;7.432;2024-02-26T01:19:22;9.40;99.90
10051;DHT22;5065;46.942;7.432;2024-02-26T01:21:49;9.40;99.90
10051;DHT22;5065;46.942;7.432;2024-02-26T01:24:17;9.40;99.90
10051;DHT22;5065;46.942;7.432;2024-02-26T01:26:45;9.30;99.90
10051;DHT22;5065;46.942;7.432;2024-02-26T01:29:12;9.30;99.90
10051;DHT22;5065;46.942;7.432;2024-02-26T01:31:39;9.30;99.90
10051;DHT22;5065;46.942;7.432;2024-02-26T01:34:06;9.30;99.90
10051;DHT22;5065;46.942;7.432;2024-02-26T01:36:33;9.30;99.90
10051;DHT22;5065;46.942;7.432;2024-02-26T01:39:02;9.30;99.90
10051;DHT22;5065;46.942;7.432;2024-02-26T01:41:29;9.30;99.90
10051;DHT22;5065;46.942;7.432;2024-02-26T01:43:58;9.30;99.90
10051;DHT22;5065;46.942;7.432;2024-02-26T01:46:25;9.20;99.90
10051;DHT22;5065;46.942;7.432;2024-02-26T01:48:52;9.20;99.90
10051;DHT22;5065;46.942;7.432;2024-02-26T01:51:20;9.20;99.90
10051;DHT22;5065;46.942;7.432;2024-02-26T01:53:47;9.30;99.90
10051;DHT22;5065;46.942;7.432;2024-02-26T01:56:15;9.20;99.90
10051;DHT22;5065;46.942;7.432;2024-02-26T01:58:43;9.20;99.90
10051;DHT22;5065;46.942;7.432;2024-02-26T02:01:12;9.20;99.90
10051;DHT22;5065;46.942;7.432;2024-02-26T02:03:39;9.20;99.90
10051;DHT22;5065;46.942;7.432;2024-02-26T02:06:07;9.20;99.90
10051;DHT22;5065;46.942;7.432;2024-02-26T02:08:35;9.20;99.90
10051;DHT22;5065;46.942;7.432;2024-02-26T02:11:02;9.30;99.90
10051;DHT22;5065;46.942;7.432;2024-02-26T02:13:30;9.20;99.90
10051;DHT22;5065;46.942;7.432;2024-02-26T02:15:57;9.20;99.90
10051;DHT22;5065;46.942;7.432;2024-02-26T02:18:25;9.20;99.90
10051;DHT22;5065;46.942;7.432;2024-02-26T02:20:55;9.20;99.90
10051;DHT22;5065;46.942;7.432;2024-02-26T02:23:25;9.20;99.90
10051;DHT22;5065;46.942;7.432;2024-02-26T02:25:52;9.20;99.90
10051;DHT22;5065;46.942;7.432;2024-02-26T02:28:21;9.20;99.90
10051;DHT22;5065;46.942;7.432;2024-02-26T02:30:48;9.20;99.90
10051;DHT22;5065;46.942;7.432;2024-02-26T02:33:16;9.20;99.90
10051;DHT22;5065;46.942;7.432;2024-02-26T02:35:43;9.20;99.90
10051;DHT22;5065;46.942;7.432;2024-02-26T02:38:11;9.20;99.90
10051;DHT22;5065;46.942;7.432;2024-02-26T02:40:38;9.20;99.90
10051;DHT22;5065;46.942;7.432;2024-02-26T02:43:06;9.20;99.90
10051;DHT22;5065;46.942;7.432;2024-02-26T02:45:33;9.20;99.90
10051;DHT22;5065;46.942;7.432;2024-02-26T02:48:00;9.20;99.90
10051;DHT22;5065;46.942;7.432;2024-02-26T02:50:27;9.20;99.90
10051;DHT22;5065;46.942;7.432;2024-02-26T02:52:54;9.20;99.90
10051;DHT22;5065;46.942;7.432;2024-02-26T02:55:23;9.20;99.90
10051;DHT22;5065;46.942;7.432;2024-02-26T02:57:50;9.20;99.90
10051;DHT22;5065;46.942;7.432;2024-02-26T03:00:17;9.20;99.90
10051;DHT22;5065;46.942;7.432;2024-02-26T03:02:44;9.10;99.90
10051;DHT22;5065;46.942;7.432;2024-02-26T03:05:12;9.20;99.90
10051;DHT22;5065;46.942;7.432;2024-02-26T03:07:39;9.20;99.90
10051;DHT22;5065;46.942;7.432;2024-02-26T03:10:07;9.10;99.90
10051;DHT22;5065;46.942;7.432;2024-02-26T03:12:35;9.10;99.90
10051;DHT22;5065;46.942;7.432;2024-02-26T03:15:03;9.20;99.90
10051;DHT22;5065;46.942;7.432;2024-02-26T03:17:30;9.20;99.90
10051;DHT22;5065;46.942;7.432;2024-02-26T03:19:57;9.10;99.90
10051;DHT22;5065;46.942;7.432;2024-02-26T03:22:24;9.10;99.90
10051;DHT22;5065;46.942;7.432;2024-02-26T03:24:51;9.10;99.90
10051;DHT22;5065;46.942;7.432;2024-02-26T03:27:18;9.10;99.90
10051;DHT22;5065;46.942;7.432;2024-02-26T03:29:46;9.10;99.90
10051;DHT22;5065;46.942;7.432;2024-02-26T03:32:14;9.10;99.90
10051;DHT22;5065;46.942;7.432;2024-02-26T03:34:41;9.10;99.90
10051;DHT22;5065;46.942;7.432;2024-02-26T03:37:08;9.10;99.90
10051;DHT22;5065;46.942;7.432;2024-02-26T03:39:36;9.10;99.90
10051;DHT22;5065;46.942;7.432;2024-02-26T03:42:04;9.10;99.90
10051;DHT22;5065;46.942;7.432;2024-02-26T03:44:32;9.10;99.90
10051;DHT22;5065;46.942;7.432;2024-02-26T03:47:00;9.10;99.90
10051;DHT22;5065;46.942;7.432;2024-02-26T03:49:27;9.10;99.90
10051;DHT22;5065;46.942;7.432;2024-02-26T03:51:54;9.10;99.90
10051;DHT22;5065;46.942;7.432;2024-02-26T03:54:22;9.10;99.90
10051;DHT22;5065;46.942;7.432;2024-02-26T03:56:49;9.10;99.90
10051;DHT22;5065;46.942;7.432;2024-02-26T03:59:16;9.10;99.90
10051;DHT22;5065;46.942;7.432;2024-02-26T04:01:45;9.10;99.90
10051;DHT22;5065;46.942;7.432;2024-02-26T04:04:14;9.10;99.90
10051;DHT22;5065;46.942;7.432;2024-02-26T04:06:44;9.10;99.90
10051;DHT22;5065;46.942;7.432;2024-02-26T04:09:14;9.10;99.90
10051;DHT22;5065;46.942;7.432;2024-02-26T04:11:41;9.10;99.90
10051;DHT22;5065;46.942;7.432;2024-02-26T04:14:09;9.10;99.90
10051;DHT22;5065;46.942;7.432;2024-02-26T04:16:38;9.10;99.90
10051;DHT22;5065;46.942;7.432;2024-02-26T04:19:05;9.10;99.90
10051;DHT22;5065;46.942;7.432;2024-02-26T04:21:33;9.10;99.90
10051;DHT22;5065;46.942;7.432;2024-02-26T04:24:01;9.10;99.90
10051;DHT22;5065;46.942;7.432;2024-02-26T04:26:28;9.10;99.90
10051;DHT22;5065;46.942;7.432;2024-02-26T04:28:55;9.10;99.90
10051;DHT22;5065;46.942;7.432;2024-02-26T04:31:22;9.10;99.90
10051;DHT22;5065;46.942;7.432;2024-02-26T04:33:49;9.20;99.90
10051;DHT22;5065;46.942;7.432;2024-02-26T04:36:17;9.30;99.90
10051;DHT22;5065;46.942;7.432;2024-02-26T04:38:45;9.20;99.90
10051;DHT22;5065;46.942;7.432;2024-02-26T04:41:12;9.20;99.90
10051;DHT22;5065;46.942;7.432;2024-02-26T04:43:39;9.20;99.90
10051;DHT22;5065;46.942;7.432;2024-02-26T04:46:07;9.20;99.90
10051;DHT22;5065;46.942;7.432;2024-02-26T04:48:34;9.20;99.90
10051;DHT22;5065;46.942;7.432;2024-02-26T04:51:02;9.10;99.90
10051;DHT22;5065;46.942;7.432;2024-02-26T04:53:29;9.10;99.90
10051;DHT22;5065;46.942;7.432;2024-02-26T04:55:57;9.10;99.90
10051;DHT22;5065;46.942;7.432;2024-02-26T04:58:24;9.10;99.90
10051;DHT22;5065;46.942;7.432;2024-02-26T05:00:51;9.10;99.90
10051;DHT22;5065;46.942;7.432;2024-02-26T05:03:18;9.20;99.90
10051;DHT22;5065;46.942;7.432;2024-02-26T05:05:46;9.10;99.90
10051;DHT22;5065;46.942;7.432;2024-02-26T05:08:13;9.20;99.90
10051;DHT22;5065;46.942;7.432;2024-02-26T05:10:40;9.20;99.90
10051;DHT22;5065;46.942;7.432;2024-02-26T05:13:10;9.20;99.90
10051;DHT22;5065;46.942;7.432;2024-02-26T05:15:37;9.20;99.90
10051;DHT22;5065;46.942;7.432;2024-02-26T05:18:04;9.10;99.90
10051;DHT22;5065;46.942;7.432;2024-02-26T05:20:33;9.10;99.90
10051;DHT22;5065;46.942;7.432;2024-02-26T05:23:01;9.10;99.90
10051;DHT22;5065;46.942;7.432;2024-02-26T05:25:29;9.10;99.90
10051;DHT22;5065;46.942;7.432;2024-02-26T05:27:56;9.20;99.90
10051;DHT22;5065;46.942;7.432;2024-02-26T05:30:25;9.20;99.90
10051;DHT22;5065;46.942;7.432;2024-02-26T05:32:52;9.10;99.90
10051;DHT22;5065;46.942;7.432;2024-02-26T05:35:19;9.10;99.90
10051;DHT22;5065;46.942;7.432;2024-02-26T05:37:46;9.20;99.90
10051;DHT22;5065;46.942;7.432;2024-02-26T05:40:14;9.20;99.90
10051;DHT22;5065;46.942;7.432;2024-02-26T05:42:41;9.20;99.90
10051;DHT22;5065;46.942;7.432;2024-02-26T05:45:10;9.20;99.90
10051;DHT22;5065;46.942;7.432;2024-02-26T05:47:39;9.10;99.90
10051;DHT22;5065;46.942;7.432;2024-02-26T05:50:09;9.20;99.90
10051;DHT22;5065;46.942;7.432;2024-02-26T05:52:37;9.20;99.90
10051;DHT22;5065;46.942;7.432;2024-02-26T05:55:05;9.20;99.90
10051;DHT22;5065;46.942;7.432;2024-02-26T05:57:32;9.20;99.90
10051;DHT22;5065;46.942;7.432;2024-02-26T05:59:59;9.10;99.90
10051;DHT22;5065;46.942;7.432;2024-02-26T06:02:29;9.10;99.90
10051;DHT22;5065;46.942;7.432;2024-02-26T06:04:58;9.10;99.90
10051;DHT22;5065;46.942;7.432;2024-02-26T06:07:25;9.00;99.90
10051;DHT22;5065;46.942;7.432;2024-02-26T06:09:52;9.00;99.90
10051;DHT22;5065;46.942;7.432;2024-02-26T06:12:19;9.00;99.90
10051;DHT22;5065;46.942;7.432;2024-02-26T06:14:47;9.00;99.90
10051;DHT22;5065;46.942;7.432;2024-02-26T06:17:14;9.00;99.90
10051;DHT22;5065;46.942;7.432;2024-02-26T06:19:42;9.00;99.90
10051;DHT22;5065;46.942;7.432;2024-02-26T06:22:10;9.00;99.90
10051;DHT22;5065;46.942;7.432;2024-02-26T06:24:37;9.00;99.90
10051;DHT22;5065;46.942;7.432;2024-02-26T06:27:04;9.10;99.90
10051;DHT22;5065;46.942;7.432;2024-02-26T06:29:31;9.00;99.90
10051;DHT22;5065;46.942;7.432;2024-02-26T06:31:58;9.10;99.90
10051;DHT22;5065;46.942;7.432;2024-02-26T06:34:26;9.00;99.90
10051;DHT22;5065;46.942;7.432;2024-02-26T06:36:53;9.10;99.90
10051;DHT22;5065;46.942;7.432;2024-02-26T06:39:21;9.10;99.90
10051;DHT22;5065;46.942;7.432;2024-02-26T06:41:48;9.10;99.90
10051;DHT22;5065;46.942;7.432;2024-02-26T06:44:15;9.20;99.90
10051;DHT22;5065;46.942;7.432;2024-02-26T06:46:42;9.30;99.90
10051;DHT22;5065;46.942;7.432;2024-02-26T06:49:09;9.20;99.90
10051;DHT22;5065;46.942;7.432;2024-02-26T06:51:36;9.30;99.90
10051;DHT22;5065;46.942;7.432;2024-02-26T06:54:04;9.30;99.90
10051;DHT22;5065;46.942;7.432;2024-02-26T06:56:32;9.30;99.90
10051;DHT22;5065;46.942;7.432;2024-02-26T06:58:59;9.30;99.90
10051;DHT22;5065;46.942;7.432;2024-02-26T07:01:26;9.20;99.90
10051;DHT22;5065;46.942;7.432;2024-02-26T07:03:54;9.20;99.90
10051;DHT22;5065;46.942;7.432;2024-02-26T07:06:21;9.30;99.90
10051;DHT22;5065;46.942;7.432;2024-02-26T07:08:48;9.30;99.90
10051;DHT22;5065;46.942;7.432;2024-02-26T07:11:15;9.30;99.90
10051;DHT22;5065;46.942;7.432;2024-02-26T07:13:43;9.40;99.90
10051;DHT22;5065;46.942;7.432;2024-02-26T07:16:10;9.30;99.90
10051;DHT22;5065;46.942;7.432;2024-02-26T07:18:38;9.30;99.90
10051;DHT22;5065;46.942;7.432;2024-02-26T07:21:05;9.30;99.90
10051;DHT22;5065;46.942;7.432;2024-02-26T07:23:32;9.40;99.90
10051;DHT22;5065;46.942;7.432;2024-02-26T07:26:00;9.40;99.90
10051;DHT22;5065;46.942;7.432;2024-02-26T07:28:27;9.40;99.90
10051;DHT22;5065;46.942;7.432;2024-02-26T07:30:55;9.40;99.90
10051;DHT22;5065;46.942;7.432;2024-02-26T07:33:22;9.40;99.90
10051;DHT22;5065;46.942;7.432;2024-02-26T07:35:49;9.40;99.90
10051;DHT22;5065;46.942;7.432;2024-02-26T07:38:16;9.40;99.90
10051;DHT22;5065;46.942;7.432;2024-02-26T07:40:43;9.50;99.90
10051;DHT22;5065;46.942;7.432;2024-02-26T07:43:10;9.60;99.90
10051;DHT22;5065;46.942;7.432;2024-02-26T07:45:38;9.60;99.90
10051;DHT22;5065;46.942;7.432;2024-02-26T07:48:07;9.60;99.90
10051;DHT22;5065;46.942;7.432;2024-02-26T07:50:34;9.60;99.90
10051;DHT22;5065;46.942;7.432;2024-02-26T07:53:01;9.60;99.90
10051;DHT22;5065;46.942;7.432;2024-02-26T07:55:28;9.70;99.90
10051;DHT22;5065;46.942;7.432;2024-02-26T07:57:55;9.70;99.90
10051;DHT22;5065;46.942;7.432;2024-02-26T08:00:22;9.70;99.90
10051;DHT22;5065;46.942;7.432;2024-02-26T08:02:49;9.70;99.90
10051;DHT22;5065;46.942;7.432;2024-02-26T08:05:18;9.70;99.90
10051;DHT22;5065;46.942;7.432;2024-02-26T08:07:45;9.70;99.90
10051;DHT22;5065;46.942;7.432;2024-02-26T08:10:12;9.60;99.90
10051;DHT22;5065;46.942;7.432;2024-02-26T08:12:39;9.60;99.90
10051;DHT22;5065;46.942;7.432;2024-02-26T08:15:07;9.70;99.90
10051;DHT22;5065;46.942;7.432;2024-02-26T08:17:35;9.70;99.90
10051;DHT22;5065;46.942;7.432;2024-02-26T08:20:03;9.60;99.90
10051;DHT22;5065;46.942;7.432;2024-02-26T08:22:31;9.60;99.90
10051;DHT22;5065;46.942;7.432;2024-02-26T08:24:59;9.50;99.90
10051;DHT22;5065;46.942;7.432;2024-02-26T08:27:28;9.50;99.90
10051;DHT22;5065;46.942;7.432;2024-02-26T08:29:55;9.50;99.90
10051;DHT22;5065;46.942;7.432;2024-02-26T08:32:22;9.50;99.90
10051;DHT22;5065;46.942;7.432;2024-02-26T08:34:49;9.40;99.90
10051;DHT22;5065;46.942;7.432;2024-02-26T08:37:17;9.30;99.90
10051;DHT22;5065;46.942;7.432;2024-02-26T08:39:45;9.40;99.90
10051;DHT22;5065;46.942;7.432;2024-02-26T08:42:12;9.30;99.90
10051;DHT22;5065;46.942;7.432;2024-02-26T08:44:39;9.40;99.90
10051;DHT22;5065;46.942;7.432;2024-02-26T08:47:06;9.40;99.90
10051;DHT22;5065;46.942;7.432;2024-02-26T08:49:33;9.40;99.90
10051;DHT22;5065;46.942;7.432;2024-02-26T08:52:00;9.50;99.90
10051;DHT22;5065;46.942;7.432;2024-02-26T08:54:28;9.50;99.90
10051;DHT22;5065;46.942;7.432;2024-02-26T08:56:56;9.60;99.90
10051;DHT22;5065;46.942;7.432;2024-02-26T08:59:23;9.60;99.90
10051;DHT22;5065;46.942;7.432;2024-02-26T09:01:50;9.60;99.90
10051;DHT22;5065;46.942;7.432;2024-02-26T09:04:17;9.60;99.90
10051;DHT22;5065;46.942;7.432;2024-02-26T09:06:45;9.70;99.90
10051;DHT22;5065;46.942;7.432;2024-02-26T09:09:12;9.70;99.90
10051;DHT22;5065;46.942;7.432;2024-02-26T09:11:39;9.70;99.90
10051;DHT22;5065;46.942;7.432;2024-02-26T09:14:07;9.80;99.90
10051;DHT22;5065;46.942;7.432;2024-02-26T09:16:34;9.90;99.90
10051;DHT22;5065;46.942;7.432;2024-02-26T09:19:01;9.90;99.90
10051;DHT22;5065;46.942;7.432;2024-02-26T09:21:29;10.00;99.90
10051;DHT22;5065;46.942;7.432;2024-02-26T09:23:56;10.10;99.90
10051;DHT22;5065;46.942;7.432;2024-02-26T09:26:23;10.10;99.90
10051;DHT22;5065;46.942;7.432;2024-02-26T09:28:50;10.10;99.90
10051;DHT22;5065;46.942;7.432;2024-02-26T09:31:19;10.10;99.90
10051;DHT22;5065;46.942;7.432;2024-02-26T09:33:46;10.20;99.90
10051;DHT22;5065;46.942;7.432;2024-02-26T09:36:13;10.20;99.90
10051;DHT22;5065;46.942;7.432;2024-02-26T09:38:40;10.30;99.90
10051;DHT22;5065;46.942;7.432;2024-02-26T09:41:14;10.30;99.90
10051;DHT22;5065;46.942;7.432;2024-02-26T09:43:44;10.40;99.90
10051;DHT22;5065;46.942;7.432;2024-02-26T09:46:12;10.50;99.90
10051;DHT22;5065;46.942;7.432;2024-02-26T09:48:42;10.50;99.90
10051;DHT22;5065;46.942;7.432;2024-02-26T09:51:11;10.60;99.90
10051;DHT22;5065;46.942;7.432;2024-02-26T09:53:39;10.70;99.90
10051;DHT22;5065;46.942;7.432;2024-02-26T09:56:10;10.70;99.90
10051;DHT22;5065;46.942;7.432;2024-02-26T09:58:39;10.70;99.90
10051;DHT22;5065;46.942;7.432;2024-02-26T10:01:11;10.70;99.90
10051;DHT22;5065;46.942;7.432;2024-02-26T10:03:40;10.80;99.90
10051;DHT22;5065;46.942;7.432;2024-02-26T10:06:11;10.80;99.90
10051;DHT22;5065;46.942;7.432;2024-02-26T10:08:38;10.80;99.90
10051;DHT22;5065;46.942;7.432;2024-02-26T10:11:07;10.90;99.90
10051;DHT22;5065;46.942;7.432;2024-02-26T10:13:34;10.80;99.90
10051;DHT22;5065;46.942;7.432;2024-02-26T10:16:02;10.90;99.90
10051;DHT22;5065;46.942;7.432;2024-02-26T10:18:45;10.90;99.90
10051;DHT22;5065;46.942;7.432;2024-02-26T10:21:15;11.00;99.90
10051;DHT22;5065;46.942;7.432;2024-02-26T10:23:43;11.00;99.90
10051;DHT22;5065;46.942;7.432;2024-02-26T10:26:12;11.00;99.90
10051;DHT22;5065;46.942;7.432;2024-02-26T10:28:39;11.00;99.90
10051;DHT22;5065;46.942;7.432;2024-02-26T10:31:07;11.00;99.90
10051;DHT22;5065;46.942;7.432;2024-02-26T10:33:34;11.10;99.90
10051;DHT22;5065;46.942;7.432;2024-02-26T10:36:02;11.20;99.90
10051;DHT22;5065;46.942;7.432;2024-02-26T10:38:32;11.30;99.90
10051;DHT22;5065;46.942;7.432;2024-02-26T10:41:00;11.30;99.90
10051;DHT22;5065;46.942;7.432;2024-02-26T10:43:28;11.40;99.90
10051;DHT22;5065;46.942;7.432;2024-02-26T10:45:55;11.50;99.90
10051;DHT22;5065;46.942;7.432;2024-02-26T10:48:22;11.60;99.90
10051;DHT22;5065;46.942;7.432;2024-02-26T10:50:50;11.60;99.90
10051;DHT22;5065;46.942;7.432;2024-02-26T10:53:20;11.70;99.90
10051;DHT22;5065;46.942;7.432;2024-02-26T10:55:53;11.70;99.90
10051;DHT22;5065;46.942;7.432;2024-02-26T10:58:22;11.70;99.90
10051;DHT22;5065;46.942;7.432;2024-02-26T11:00:51;11.80;99.90
10051;DHT22;5065;46.942;7.432;2024-02-26T11:03:18;11.80;99.90
10051;DHT22;5065;46.942;7.432;2024-02-26T11:05:47;11.70;99.90
10051;DHT22;5065;46.942;7.432;2024-02-26T11:08:18;11.80;99.90
10051;DHT22;5065;46.942;7.432;2024-02-26T11:10:48;11.80;99.90
10051;DHT22;5065;46.942;7.432;2024-02-26T11:13:18;11.90;99.90
10051;DHT22;5065;46.942;7.432;2024-02-26T11:15:46;11.90;99.90
10051;DHT22;5065;46.942;7.432;2024-02-26T11:18:15;11.90;99.90
10051;DHT22;5065;46.942;7.432;2024-02-26T11:20:43;11.90;99.90
10051;DHT22;5065;46.942;7.432;2024-02-26T11:23:11;11.90;99.90
10051;DHT22;5065;46.942;7.432;2024-02-26T11:25:39;11.90;99.90
10051;DHT22;5065;46.942;7.432;2024-02-26T11:28:10;11.90;99.90
10051;DHT22;5065;46.942;7.432;2024-02-26T11:30:41;11.90;99.90
10051;DHT22;5065;46.942;7.432;2024-02-26T11:33:10;12.00;99.90
10051;DHT22;5065;46.942;7.432;2024-02-26T11:35:38;12.00;99.90
10051;DHT22;5065;46.942;7.432;2024-02-26T11:38:05;11.90;99.90
10051;DHT22;5065;46.942;7.432;2024-02-26T11:40:33;12.00;99.90
10051;DHT22;5065;46.942;7.432;2024-02-26T11:43:07;11.90;99.90
10051;DHT22;5065;46.942;7.432;2024-02-26T11:45:53;12.00;99.90
10051;DHT22;5065;46.942;7.432;2024-02-26T11:48:23;12.00;99.90
10051;DHT22;5065;46.942;7.432;2024-02-26T11:50:52;12.00;99.90
10051;DHT22;5065;46.942;7.432;2024-02-26T11:53:23;12.00;99.90
10051;DHT22;5065;46.942;7.432;2024-02-26T11:56:13;12.00;99.90
10051;DHT22;5065;46.942;7.432;2024-02-26T11:58:44;12.00;99.90
10051;DHT22;5065;46.942;7.432;2024-02-26T12:01:42;11.90;99.90
10051;DHT22;5065;46.942;7.432;2024-02-26T12:04:18;11.90;99.90
10051;DHT22;5065;46.942;7.432;2024-02-26T12:06:48;11.90;99.90
10051;DHT22;5065;46.942;7.432;2024-02-26T12:09:33;11.90;99.90
10051;DHT22;5065;46.942;7.432;2024-02-26T12:12:01;12.00;99.90
10051;DHT22;5065;46.942;7.432;2024-02-26T12:14:33;12.00;99.90
10051;DHT22;5065;46.942;7.432;2024-02-26T12:17:00;12.10;99.90
10051;DHT22;5065;46.942;7.432;2024-02-26T12:19:28;12.10;99.90
10051;DHT22;5065;46.942;7.432;2024-02-26T12:21:55;12.10;99.90
10051;DHT22;5065;46.942;7.432;2024-02-26T12:24:22;12.10;99.90
10051;DHT22;5065;46.942;7.432;2024-02-26T12:26:49;12.10;99.90
10051;DHT22;5065;46.942;7.432;2024-02-26T12:29:16;12.20;99.90
10051;DHT22;5065;46.942;7.432;2024-02-26T12:31:45;12.20;99.90
10051;DHT22;5065;46.942;7.432;2024-02-26T12:34:12;12.20;99.90
10051;DHT22;5065;46.942;7.432;2024-02-26T12:36:40;12.20;99.90
10051;DHT22;5065;46.942;7.432;2024-02-26T12:39:07;12.20;99.90
10051;DHT22;5065;46.942;7.432;2024-02-26T12:41:35;12.10;99.90
10051;DHT22;5065;46.942;7.432;2024-02-26T12:44:03;12.10;99.90
10051;DHT22;5065;46.942;7.432;2024-02-26T12:46:30;12.00;99.90
10051;DHT22;5065;46.942;7.432;2024-02-26T12:48:58;11.90;99.90
10051;DHT22;5065;46.942;7.432;2024-02-26T12:51:26;12.00;99.90
10051;DHT22;5065;46.942;7.432;2024-02-26T12:53:54;12.00;99.90
10051;DHT22;5065;46.942;7.432;2024-02-26T12:56:24;12.10;99.90
10051;DHT22;5065;46.942;7.432;2024-02-26T12:58:52;12.20;99.90
10051;DHT22;5065;46.942;7.432;2024-02-26T13:01:23;12.20;99.90
10051;DHT22;5065;46.942;7.432;2024-02-26T13:03:51;12.20;99.90
10051;DHT22;5065;46.942;7.432;2024-02-26T13:06:21;12.30;99.90
10051;DHT22;5065;46.942;7.432;2024-02-26T13:08:48;12.30;99.90
10051;DHT22;5065;46.942;7.432;2024-02-26T13:11:15;12.30;99.90
10051;DHT22;5065;46.942;7.432;2024-02-26T13:13:47;12.40;99.90
10051;DHT22;5065;46.942;7.432;2024-02-26T13:16:15;12.40;99.90
10051;DHT22;5065;46.942;7.432;2024-02-26T13:18:42;12.40;99.90
10051;DHT22;5065;46.942;7.432;2024-02-26T13:21:11;12.40;99.90
10051;DHT22;5065;46.942;7.432;2024-02-26T13:23:40;12.40;99.90
10051;DHT22;5065;46.942;7.432;2024-02-26T13:26:08;12.30;99.90
10051;DHT22;5065;46.942;7.432;2024-02-26T13:28:38;12.30;99.90
10051;DHT22;5065;46.942;7.432;2024-02-26T13:31:05;12.30;99.90
10051;DHT22;5065;46.942;7.432;2024-02-26T13:33:33;12.20;99.90
10051;DHT22;5065;46.942;7.432;2024-02-26T13:36:01;12.10;99.90
10051;DHT22;5065;46.942;7.432;2024-02-26T13:38:28;12.10;99.90
10051;DHT22;5065;46.942;7.432;2024-02-26T13:40:57;12.10;99.90
10051;DHT22;5065;46.942;7.432;2024-02-26T13:43:24;12.10;99.90
10051;DHT22;5065;46.942;7.432;2024-02-26T13:45:51;12.10;99.90
10051;DHT22;5065;46.942;7.432;2024-02-26T13:48:18;12.10;99.90
10051;DHT22;5065;46.942;7.432;2024-02-26T13:50:45;12.10;99.90
10051;DHT22;5065;46.942;7.432;2024-02-26T13:53:12;12.10;99.90
10051;DHT22;5065;46.942;7.432;2024-02-26T13:55:40;12.10;99.90
10051;DHT22;5065;46.942;7.432;2024-02-26T13:58:12;12.10;99.90
10051;DHT22;5065;46.942;7.432;2024-02-26T14:00:40;12.20;99.90
10051;DHT22;5065;46.942;7.432;2024-02-26T14:03:07;12.10;99.90
10051;DHT22;5065;46.942;7.432;2024-02-26T14:05:34;12.10;99.90
10051;DHT22;5065;46.942;7.432;2024-02-26T14:08:02;12.10;99.90
10051;DHT22;5065;46.942;7.432;2024-02-26T14:10:29;12.00;99.90
10051;DHT22;5065;46.942;7.432;2024-02-26T14:12:57;12.00;99.90
10051;DHT22;5065;46.942;7.432;2024-02-26T14:15:27;12.00;99.90
10051;DHT22;5065;46.942;7.432;2024-02-26T14:17:54;12.10;99.90
10051;DHT22;5065;46.942;7.432;2024-02-26T14:20:22;12.00;99.90
10051;DHT22;5065;46.942;7.432;2024-02-26T14:22:49;12.00;99.90
10051;DHT22;5065;46.942;7.432;2024-02-26T14:25:18;12.00;99.90
10051;DHT22;5065;46.942;7.432;2024-02-26T14:27:45;12.00;99.90
10051;DHT22;5065;46.942;7.432;2024-02-26T14:30:12;12.00;99.90
10051;DHT22;5065;46.942;7.432;2024-02-26T14:32:42;12.00;99.90
10051;DHT22;5065;46.942;7.432;2024-02-26T14:35:09;12.00;99.90
10051;DHT22;5065;46.942;7.432;2024-02-26T14:37:36;12.00;99.90
10051;DHT22;5065;46.942;7.432;2024-02-26T14:40:04;12.00;99.90
10051;DHT22;5065;46.942;7.432;2024-02-26T14:42:32;12.00;99.90
10051;DHT22;5065;46.942;7.432;2024-02-26T14:44:59;12.00;99.90
10051;DHT22;5065;46.942;7.432;2024-02-26T14:47:26;12.00;99.90
10051;DHT22;5065;46.942;7.432;2024-02-26T14:49:55;12.10;99.90
10051;DHT22;5065;46.942;7.432;2024-02-26T14:52:22;12.10;99.90
10051;DHT22;5065;46.942;7.432;2024-02-26T14:54:49;12.10;99.90
10051;DHT22;5065;46.942;7.432;2024-02-26T14:57:17;12.10;99.90
10051;DHT22;5065;46.942;7.432;2024-02-26T14:59:44;12.20;99.90
10051;DHT22;5065;46.942;7.432;2024-02-26T15:02:11;12.10;99.90
10051;DHT22;5065;46.942;7.432;2024-02-26T15:04:38;12.10;99.90
10051;DHT22;5065;46.942;7.432;2024-02-26T15:07:06;12.10;99.90
10051;DHT22;5065;46.942;7.432;2024-02-26T15:09:34;12.10;99.90
10051;DHT22;5065;46.942;7.432;2024-02-26T15:12:01;12.20;99.90
10051;DHT22;5065;46.942;7.432;2024-02-26T15:14:30;12.20;99.90
10051;DHT22;5065;46.942;7.432;2024-02-26T15:16:57;12.20;99.90
10051;DHT22;5065;46.942;7.432;2024-02-26T15:19:24;12.10;99.90
10051;DHT22;5065;46.942;7.432;2024-02-26T15:21:52;12.10;99.90
10051;DHT22;5065;46.942;7.432;2024-02-26T15:24:20;12.10;99.90
10051;DHT22;5065;46.942;7.432;2024-02-26T15:26:47;12.10;99.90
10051;DHT22;5065;46.942;7.432;2024-02-26T15:29:14;12.20;99.90
10051;DHT22;5065;46.942;7.432;2024-02-26T15:31:41;12.20;99.90
10051;DHT22;5065;46.942;7.432;2024-02-26T15:34:09;12.20;99.90
10051;DHT22;5065;46.942;7.432;2024-02-26T15:36:36;12.20;99.90
10051;DHT22;5065;46.942;7.432;2024-02-26T15:39:03;12.20;99.90
10051;DHT22;5065;46.942;7.432;2024-02-26T15:41:34;12.30;99.90
10051;DHT22;5065;46.942;7.432;2024-02-26T15:44:01;12.30;99.90
10051;DHT22;5065;46.942;7.432;2024-02-26T15:46:28;12.40;99.90
10051;DHT22;5065;46.942;7.432;2024-02-26T15:48:55;12.40;99.90
10051;DHT22;5065;46.942;7.432;2024-02-26T15:51:23;12.30;99.90
10051;DHT22;5065;46.942;7.432;2024-02-26T15:53:50;12.30;99.90
10051;DHT22;5065;46.942;7.432;2024-02-26T15:56:18;12.30;99.90
10051;DHT22;5065;46.942;7.432;2024-02-26T15:58:50;12.30;99.90